Portada
METAR-TAF:

METAR-TAF

Aeroports :

Victòria, Mahé, Seychelles

latitud: 04-40S, longitud: 055-31E, altitud: 3 m

Observació

L'informe es va fer fa 52 minuts, a les 04:00 UTC
Vent 11 kt del Nord
Temperatura 30°C
Humitat 75%
Pressió 1010 hPa
Visibilitat 10 km o més
Núvols disperses a una alçada de 2000 ft

METAR: FSIA 210400Z 36011KT 9999 SCT020 30/25 Q1010 NOSIG

Hora: 08:52 (04:52 UTC)

Pronòstic

L'informe es va fer fa 5 hores i 49 minuts, a les 23:03 UTC
Pronòstic vàlid del 21 a les 00 UTC al 21 a les 24 UTC
Vent 10 kt del Oest/Nord-Oest
Visibilitat 10 km o més
Núvols disperses a una alçada de 2100 ft
Evolucionant progressivament
l' 21 a les 06 UTC al 21 a les 08 UTC
Vent 10 kt del Nord

TAF: FSIA 202303Z 2100/2124 30010KT 9999 SCT021 BECMG 2106/2108 36010KT

Observacions i pronòstics meteorològics de més de 4000 aeroports (METAR i TAF).

Les estacions disponibles són els punts grocs i vermells al mapa.

Posi el ratolí al punt desitjat per veure el nom de l'estació.

Feu clic per veure les observacions i els pronòstics meteorològics.

Per canviar el mapa: feu clic els botons verds amb una creu de color negre per apropar; al botó verd amb un guió per allunyar la imatge; o en les fletxes verdes per a mapes adjacents.


METAR-TAF: